Time;durP1;ratioP1;P1;durP2;ratioP2;P2;SDS_P1;SDS_P2;PMS_P1;PMS_P2;Temp;Humidity;BMP_temperature;BMP_pressure;BME280_temperature;BME280_humidity;BME280_pressure;Samples;Min_cycle;Max_cycle;Signal;HPM_P1;HPM_P2
2022/08/11 00:01:31;0.00;0.00;0.62;0.00;0.00;0.62;2.77;2.50;;;30.50;24.00;;;;;;2218685;62;20368;-63
2022/08/11 00:04:20;0.00;0.00;0.62;0.00;0.00;0.62;2.40;1.93;;;30.50;24.00;;;;;;2218339;62;20403;-67
2022/08/11 00:07:06;0.00;0.00;0.62;0.00;0.00;0.62;3.40;2.47;;;30.50;24.00;;;;;;2218163;62;20747;-66
2022/08/11 00:09:52;0.00;0.00;0.62;0.00;0.00;0.62;6.60;2.80;;;30.50;24.00;;;;;;2218691;62;20743;-65
2022/08/11 00:12:39;0.00;0.00;0.62;0.00;0.00;0.62;2.40;2.10;;;30.50;24.00;;;;;;2218446;62;20494;-66
2022/08/11 00:15:27;0.00;0.00;0.62;0.00;0.00;0.62;2.87;2.50;;;30.50;24.00;;;;;;2218162;62;20429;-64
2022/08/11 00:18:13;0.00;0.00;0.62;0.00;0.00;0.62;2.87;2.50;;;30.50;24.00;;;;;;2218313;62;20436;-65
2022/08/11 00:20:59;0.00;0.00;0.62;0.00;0.00;0.62;2.70;2.40;;;30.50;24.00;;;;;;2218626;62;20643;-63
2022/08/11 00:23:54;0.00;0.00;0.62;0.00;0.00;0.62;2.70;2.20;;;30.40;24.00;;;;;;2218748;62;20371;-67
2022/08/11 00:26:39;0.00;0.00;0.62;0.00;0.00;0.62;3.00;2.23;;;30.40;24.00;;;;;;2218224;62;20629;-66
2022/08/11 00:29:26;0.00;0.00;0.62;0.00;0.00;0.62;3.10;2.60;;;30.40;24.10;;;;;;2217836;62;20403;-64
2022/08/11 00:32:13;0.00;0.00;0.62;0.00;0.00;0.62;3.50;2.20;;;30.40;24.10;;;;;;2218192;62;20858;-65
2022/08/11 00:35:00;0.00;0.00;0.62;0.00;0.00;0.62;3.17;2.30;;;30.40;24.10;;;;;;2218379;62;20372;-66
2022/08/11 00:37:48;0.00;0.00;0.62;0.00;0.00;0.62;2.30;2.00;;;30.40;24.20;;;;;;2217961;62;20391;-67
2022/08/11 00:40:40;0.00;0.00;0.62;0.00;0.00;0.62;3.20;2.47;;;30.40;24.10;;;;;;2218364;62;20460;-64
2022/08/11 00:43:48;0.00;0.00;0.62;0.00;0.00;0.62;2.50;2.20;;;30.40;24.20;;;;;;2218156;62;20739;-64
2022/08/11 00:46:47;0.00;0.00;0.62;0.00;0.00;0.62;2.83;2.20;;;30.40;24.20;;;;;;2218413;62;20384;-64
2022/08/11 00:49:57;0.00;0.00;0.62;0.00;0.00;0.62;2.53;2.23;;;30.40;24.30;;;;;;2218309;62;20517;-65
2022/08/11 00:53:25;0.00;0.00;0.62;0.00;0.00;0.62;2.97;2.33;;;30.40;24.30;;;;;;2218161;62;20637;-67
2022/08/11 00:57:07;0.00;0.00;0.62;0.00;0.00;0.62;2.23;2.03;;;30.40;24.30;;;;;;2218347;62;20372;-66
2022/08/11 01:00:11;0.00;0.00;0.62;0.00;0.00;0.62;2.57;2.33;;;30.40;24.40;;;;;;2218155;62;20773;-65
2022/08/11 01:03:23;0.00;0.00;0.62;0.00;0.00;0.62;2.50;2.30;;;30.30;24.30;;;;;;2218146;62;20391;-64
2022/08/11 01:07:00;0.00;0.00;0.62;0.00;0.00;0.62;2.37;2.10;;;30.30;24.40;;;;;;2218066;62;20452;-63
2022/08/11 01:10:05;0.00;0.00;0.62;0.00;0.00;0.62;2.50;2.23;;;30.30;24.40;;;;;;2218531;62;20428;-63
2022/08/11 01:13:07;0.00;0.00;0.62;0.00;0.00;0.62;2.37;2.17;;;30.30;24.50;;;;;;2218379;62;20650;-64
2022/08/11 01:16:28;0.00;0.00;0.62;0.00;0.00;0.62;3.47;2.50;;;30.30;24.50;;;;;;2218557;62;20408;-65
2022/08/11 01:20:05;0.00;0.00;0.62;0.00;0.00;0.62;3.30;2.30;;;30.30;24.50;;;;;;2218219;62;20394;-65
2022/08/11 01:23:42;0.00;0.00;0.62;0.00;0.00;0.62;2.80;2.07;;;30.30;24.60;;;;;;2218493;62;20549;-65
2022/08/11 01:27:24;0.00;0.00;0.62;0.00;0.00;0.62;3.43;2.37;;;30.30;24.70;;;;;;2218064;62;20367;-66
2022/08/11 01:30:53;0.00;0.00;0.62;0.00;0.00;0.62;3.97;2.57;;;30.30;24.70;;;;;;2218298;62;20407;-64
2022/08/11 01:34:19;0.00;0.00;0.62;0.00;0.00;0.62;2.57;2.27;;;30.30;24.80;;;;;;2218180;62;20371;-64
2022/08/11 01:38:15;0.00;0.00;0.62;0.00;0.00;0.62;2.67;2.20;;;30.30;24.80;;;;;;2217841;62;20398;-64
2022/08/11 01:45:17;0.00;0.00;0.62;0.00;0.00;0.62;2.13;1.93;;;30.20;24.70;;;;;;2218360;62;20417;-66
2022/08/11 01:48:12;0.00;0.00;0.62;0.00;0.00;0.62;3.30;2.20;;;30.20;24.70;;;;;;2217993;62;20436;-64
2022/08/11 01:51:12;0.00;0.00;0.62;0.00;0.00;0.62;2.10;1.90;;;30.20;24.70;;;;;;2217881;62;20786;-64
2022/08/11 01:54:05;0.00;0.00;0.62;0.00;0.00;0.62;2.43;2.00;;;30.20;24.80;;;;;;2217974;62;20380;-64
2022/08/11 01:57:11;0.00;0.00;0.62;0.00;0.00;0.62;3.23;2.00;;;30.20;24.70;;;;;;2218260;62;20372;-63
2022/08/11 02:00:07;0.00;0.00;0.62;0.00;0.00;0.62;2.60;2.40;;;30.20;24.70;;;;;;2218309;62;20387;-64
2022/08/11 02:03:00;0.00;0.00;0.62;0.00;0.00;0.62;2.13;1.93;;;30.20;24.70;;;;;;2217999;62;20602;-63
2022/08/11 02:05:59;0.00;0.00;0.62;0.00;0.00;0.62;1.93;1.73;;;30.20;24.70;;;;;;2217663;62;20387;-63
2022/08/11 02:08:54;0.00;0.00;0.62;0.00;0.00;0.62;1.97;1.77;;;30.20;24.70;;;;;;2218336;62;20460;-64
2022/08/11 02:11:46;0.00;0.00;0.62;0.00;0.00;0.62;3.00;2.23;;;30.20;24.70;;;;;;2218198;62;20438;-66
2022/08/11 02:14:38;0.00;0.00;0.62;0.00;0.00;0.62;3.17;2.43;;;30.20;24.70;;;;;;2218220;62;20368;-64
2022/08/11 02:17:49;0.00;0.00;0.62;0.00;0.00;0.62;2.10;1.90;;;30.20;24.70;;;;;;2217479;62;20405;-65
2022/08/11 02:23:52;0.00;0.00;0.62;0.00;0.00;0.62;2.63;2.23;;;30.10;24.70;;;;;;2218237;62;20371;-66
2022/08/11 02:26:45;0.00;0.00;0.62;0.00;0.00;0.62;2.30;2.00;;;30.10;24.70;;;;;;2218257;62;20364;-64
2022/08/11 02:29:50;0.00;0.00;0.62;0.00;0.00;0.62;2.43;1.77;;;30.10;24.70;;;;;;2218277;62;20437;-66
2022/08/11 02:36:02;0.00;0.00;0.62;0.00;0.00;0.62;2.53;2.33;;;30.10;24.80;;;;;;2217996;62;20367;-65
2022/08/11 02:38:59;0.00;0.00;0.62;0.00;0.00;0.62;2.23;1.80;;;30.10;24.80;;;;;;2218086;62;20448;-64
2022/08/11 02:42:21;0.00;0.00;0.62;0.00;0.00;0.62;2.93;2.47;;;30.10;24.80;;;;;;2217426;62;20372;-64
2022/08/11 02:45:33;0.00;0.00;0.62;0.00;0.00;0.62;3.40;2.30;;;30.10;24.80;;;;;;2218270;62;20413;-63
2022/08/11 02:51:54;0.00;0.00;0.62;0.00;0.00;0.62;2.83;2.33;;;30.00;24.80;;;;;;2218149;62;20490;-65
2022/08/11 02:54:52;0.00;0.00;0.62;0.00;0.00;0.62;2.67;2.20;;;30.00;24.70;;;;;;2217857;62;20376;-65
2022/08/11 02:57:46;0.00;0.00;0.62;0.00;0.00;0.62;4.03;2.43;;;30.00;24.80;;;;;;2217631;62;20445;-64
2022/08/11 03:00:46;0.00;0.00;0.62;0.00;0.00;0.62;2.33;1.70;;;30.00;24.80;;;;;;2218154;62;20376;-65
2022/08/11 03:03:42;0.00;0.00;0.62;0.00;0.00;0.62;2.90;1.80;;;30.00;24.80;;;;;;2218069;62;20377;-66
2022/08/11 03:06:37;0.00;0.00;0.62;0.00;0.00;0.62;1.90;1.67;;;30.00;24.70;;;;;;2218052;62;20626;-63
2022/08/11 03:09:38;0.00;0.00;0.62;0.00;0.00;0.62;2.10;1.67;;;30.00;24.80;;;;;;2217784;62;20387;-65
2022/08/11 03:19:14;0.00;0.00;0.62;0.00;0.00;0.62;2.67;2.47;;;29.90;24.80;;;;;;2218319;62;20623;-66
2022/08/11 03:22:08;0.00;0.00;0.62;0.00;0.00;0.62;2.80;1.90;;;29.90;24.80;;;;;;2218847;62;20688;-64
2022/08/11 03:25:02;0.00;0.00;0.62;0.00;0.00;0.62;2.53;1.90;;;29.90;24.90;;;;;;2218059;62;20433;-64
2022/08/11 03:27:56;0.00;0.00;0.62;0.00;0.00;0.62;2.10;1.83;;;29.90;24.90;;;;;;2218244;62;20470;-63
2022/08/11 03:31:00;0.00;0.00;0.62;0.00;0.00;0.62;2.50;2.00;;;29.90;24.90;;;;;;2218271;62;20491;-66
2022/08/11 03:34:01;0.00;0.00;0.62;0.00;0.00;0.62;2.37;2.17;;;29.90;24.90;;;;;;2218223;62;20529;-64
2022/08/11 03:44:28;0.00;0.00;0.62;0.00;0.00;0.62;2.23;1.73;;;29.80;24.80;;;;;;2218730;62;20407;-65
2022/08/11 03:47:51;0.00;0.00;0.62;0.00;0.00;0.62;3.90;2.13;;;29.80;24.80;;;;;;2218209;62;20392;-65
2022/08/11 03:51:05;0.00;0.00;0.62;0.00;0.00;0.62;2.97;2.00;;;29.80;24.80;;;;;;2218236;62;20520;-62
2022/08/11 03:54:14;0.00;0.00;0.62;0.00;0.00;0.62;2.27;2.07;;;29.80;24.80;;;;;;2218358;62;20413;-66
2022/08/11 03:57:49;0.00;0.00;0.62;0.00;0.00;0.62;2.50;1.87;;;29.80;24.80;;;;;;2218078;62;20363;-66
2022/08/11 04:01:18;0.00;0.00;0.62;0.00;0.00;0.62;2.20;2.00;;;29.70;24.80;;;;;;2218262;62;20441;-63
2022/08/11 04:04:58;0.00;0.00;0.62;0.00;0.00;0.62;3.50;2.40;;;29.70;24.80;;;;;;2218071;62;20375;-64
2022/08/11 04:08:54;0.00;0.00;0.62;0.00;0.00;0.62;3.73;2.10;;;29.70;24.80;;;;;;2216255;62;20411;-65
2022/08/11 04:12:27;0.00;0.00;0.62;0.00;0.00;0.62;2.60;1.80;;;29.70;24.80;;;;;;2218024;62;20407;-65
2022/08/11 04:19:37;0.00;0.00;0.62;0.00;0.00;0.62;2.23;2.03;;;29.70;24.80;;;;;;2217929;62;20414;-62
2022/08/11 04:22:44;0.00;0.00;0.62;0.00;0.00;0.62;3.50;2.37;;;29.60;24.70;;;;;;2218346;62;20592;-67
2022/08/11 04:26:05;0.00;0.00;0.62;0.00;0.00;0.62;4.53;2.20;;;29.60;24.70;;;;;;2218044;62;20666;-65
2022/08/11 04:29:05;0.00;0.00;0.62;0.00;0.00;0.62;3.70;2.67;;;29.60;24.70;;;;;;2218545;62;20391;-64
2022/08/11 04:32:10;0.00;0.00;0.62;0.00;0.00;0.62;2.93;1.97;;;29.60;24.70;;;;;;2218181;62;20400;-66
2022/08/11 04:35:21;0.00;0.00;0.62;0.00;0.00;0.62;3.43;2.40;;;29.60;24.70;;;;;;2217740;62;20427;-66
2022/08/11 04:38:57;0.00;0.00;0.62;0.00;0.00;0.62;2.57;2.10;;;29.60;24.70;;;;;;2217662;62;20506;-65
2022/08/11 04:46:11;0.00;0.00;0.62;0.00;0.00;0.62;3.20;1.90;;;29.50;24.70;;;;;;2212608;62;20429;-66
2022/08/11 05:03:45;0.00;0.00;0.62;0.00;0.00;0.62;2.90;2.17;;;29.50;24.70;;;;;;2218140;62;20390;-64
2022/08/11 05:07:19;0.00;0.00;0.62;0.00;0.00;0.62;1.90;1.70;;;29.50;24.80;;;;;;2218167;62;20735;-64
2022/08/11 05:10:23;0.00;0.00;0.62;0.00;0.00;0.62;3.80;1.90;;;29.50;24.80;;;;;;2215619;62;20387;-66
2022/08/11 05:35:06;0.00;0.00;0.62;0.00;0.00;0.62;2.20;1.90;;;29.40;25.00;;;;;;2218262;62;20375;-68
2022/08/11 05:56:24;0.00;0.00;0.62;0.00;0.00;0.62;2.30;2.10;;;29.40;25.20;;;;;;2257305;59;20403;-65
2022/08/11 05:59:14;0.00;0.00;0.62;0.00;0.00;0.62;4.73;2.33;;;29.50;25.20;;;;;;2217954;62;20451;-66
2022/08/11 06:02:01;0.00;0.00;0.62;0.00;0.00;0.62;5.50;2.40;;;29.50;25.20;;;;;;2217869;62;20368;-65
2022/08/11 06:04:55;0.00;0.00;0.62;0.00;0.00;0.62;5.23;2.17;;;29.50;25.20;;;;;;2218153;62;20465;-66
2022/08/11 06:07:41;0.00;0.00;0.62;0.00;0.00;0.62;3.43;2.47;;;29.50;25.30;;;;;;2217741;62;20388;-66
2022/08/11 06:10:32;0.00;0.00;0.62;0.00;0.00;0.62;4.87;2.70;;;29.50;25.30;;;;;;2217740;62;20368;-62
2022/08/11 06:13:21;0.00;0.00;0.62;0.00;0.00;0.62;2.57;2.17;;;29.50;25.30;;;;;;2218217;62;20390;-65
2022/08/11 06:16:07;0.00;0.00;0.62;0.00;0.00;0.62;2.73;2.23;;;29.50;25.30;;;;;;2218097;62;20437;-64
2022/08/11 06:18:52;0.00;0.00;0.62;0.00;0.00;0.62;3.10;2.20;;;29.50;25.30;;;;;;2218100;62;20395;-65
2022/08/11 06:21:44;0.00;0.00;0.62;0.00;0.00;0.62;3.20;2.50;;;29.50;25.30;;;;;;2217853;62;20599;-63
2022/08/11 06:24:31;0.00;0.00;0.62;0.00;0.00;0.62;3.97;2.03;;;29.50;25.30;;;;;;2217311;62;20460;-66
2022/08/11 06:27:20;0.00;0.00;0.62;0.00;0.00;0.62;2.93;2.03;;;29.50;25.30;;;;;;2218063;62;20724;-67
2022/08/11 06:30:12;0.00;0.00;0.62;0.00;0.00;0.62;2.33;2.13;;;29.50;25.30;;;;;;2218007;62;20396;-67
2022/08/11 06:32:59;0.00;0.00;0.62;0.00;0.00;0.62;2.37;2.17;;;29.50;25.30;;;;;;2217674;62;20636;-64
2022/08/11 06:35:53;0.00;0.00;0.62;0.00;0.00;0.62;2.40;1.60;;;29.50;25.20;;;;;;2217810;62;20762;-62
2022/08/11 06:38:56;0.00;0.00;0.62;0.00;0.00;0.62;3.43;2.40;;;29.50;25.20;;;;;;2217666;62;20459;-66
2022/08/11 06:41:48;0.00;0.00;0.62;0.00;0.00;0.62;2.50;2.07;;;29.50;25.20;;;;;;2218154;62;20371;-66
2022/08/11 06:44:40;0.00;0.00;0.62;0.00;0.00;0.62;2.03;1.73;;;29.50;25.20;;;;;;2217984;62;20479;-66
2022/08/11 06:47:27;0.00;0.00;0.62;0.00;0.00;0.62;2.43;2.03;;;29.50;25.20;;;;;;2217440;62;20444;-65
2022/08/11 06:53:21;0.00;0.00;0.62;0.00;0.00;0.62;3.90;2.40;;;29.60;25.20;;;;;;2218368;62;20489;-63
2022/08/11 07:02:24;0.00;0.00;0.62;0.00;0.00;0.62;2.73;2.20;;;29.60;25.20;;;;;;2218216;62;20428;-64
2022/08/11 07:05:20;0.00;0.00;0.62;0.00;0.00;0.62;2.87;2.00;;;29.60;25.20;;;;;;2218418;62;20433;-66
2022/08/11 07:15:42;0.00;0.00;0.62;0.00;0.00;0.62;2.57;2.07;;;29.60;25.20;;;;;;2218404;62;20444;-64
2022/08/11 07:31:12;0.00;0.00;0.62;0.00;0.00;0.62;2.10;1.90;;;29.60;25.20;;;;;;2218237;62;20399;-61
2022/08/11 07:34:10;0.00;0.00;0.62;0.00;0.00;0.62;2.67;2.17;;;29.60;25.20;;;;;;2218750;62;20380;-63
2022/08/11 07:37:02;0.00;0.00;0.62;0.00;0.00;0.62;3.10;2.03;;;29.60;25.20;;;;;;2218139;62;20590;-65
2022/08/11 07:39:48;0.00;0.00;0.62;0.00;0.00;0.62;3.03;2.10;;;29.60;25.20;;;;;;2218408;62;20594;-66
2022/08/11 07:42:37;0.00;0.00;0.62;0.00;0.00;0.62;2.50;2.03;;;29.60;25.20;;;;;;2218204;62;20367;-67
2022/08/11 07:54:39;0.00;0.00;0.62;0.00;0.00;0.62;2.20;1.90;;;29.70;25.20;;;;;;2218359;62;20387;-65
2022/08/11 08:19:02;0.00;0.00;0.62;0.00;0.00;0.62;2.33;1.87;;;29.70;25.20;;;;;;2218454;62;20392;-65
2022/08/11 08:21:48;0.00;0.00;0.62;0.00;0.00;0.62;2.13;1.93;;;29.70;25.30;;;;;;2218637;62;20600;-63
2022/08/11 08:24:33;0.00;0.00;0.62;0.00;0.00;0.62;2.40;2.10;;;29.70;25.20;;;;;;2218463;62;20505;-66
2022/08/11 08:27:21;0.00;0.00;0.62;0.00;0.00;0.62;3.40;2.20;;;29.70;25.20;;;;;;2218042;62;20384;-66
2022/08/11 08:33:12;0.00;0.00;0.62;0.00;0.00;0.62;2.57;2.10;;;29.70;25.20;;;;;;2218539;62;20723;-64
2022/08/11 08:36:10;0.00;0.00;0.62;0.00;0.00;0.62;3.10;1.83;;;29.80;25.30;;;;;;2218320;62;20632;-64
2022/08/11 08:38:55;0.00;0.00;0.62;0.00;0.00;0.62;2.63;2.30;;;29.70;25.20;;;;;;2218089;62;20395;-62
2022/08/11 08:41:42;0.00;0.00;0.62;0.00;0.00;0.62;2.63;2.43;;;29.80;25.30;;;;;;2218169;62;20674;-66
2022/08/11 08:44:33;0.00;0.00;0.62;0.00;0.00;0.62;2.20;1.90;;;29.80;25.30;;;;;;2218034;62;20743;-65
2022/08/11 08:47:18;0.00;0.00;0.62;0.00;0.00;0.62;2.40;1.93;;;29.80;25.30;;;;;;2218144;62;20380;-66
2022/08/11 08:50:07;0.00;0.00;0.62;0.00;0.00;0.62;3.60;2.30;;;29.80;25.30;;;;;;2218205;62;20799;-64
2022/08/11 08:53:00;0.00;0.00;0.62;0.00;0.00;0.62;2.83;2.00;;;29.80;25.30;;;;;;2217924;62;20474;-66
2022/08/11 08:55:46;0.00;0.00;0.62;0.00;0.00;0.62;2.90;2.53;;;29.80;25.30;;;;;;2218321;62;20359;-64
2022/08/11 08:58:35;0.00;0.00;0.62;0.00;0.00;0.62;3.53;2.57;;;29.80;25.40;;;;;;2218254;62;20764;-66
2022/08/11 09:01:24;0.00;0.00;0.62;0.00;0.00;0.62;3.70;2.13;;;29.80;25.30;;;;;;2217988;62;20421;-66
2022/08/11 09:04:10;0.00;0.00;0.62;0.00;0.00;0.62;2.43;2.23;;;29.80;25.30;;;;;;2218113;62;20720;-64
2022/08/11 09:06:58;0.00;0.00;0.62;0.00;0.00;0.62;2.80;2.33;;;29.80;25.30;;;;;;2217860;62;20387;-67
2022/08/11 09:09:47;0.00;0.00;0.62;0.00;0.00;0.62;2.83;2.40;;;29.80;25.30;;;;;;2218380;62;20638;-66
2022/08/11 09:12:34;0.00;0.00;0.62;0.00;0.00;0.62;2.73;2.40;;;29.90;25.30;;;;;;2217927;62;20492;-67
2022/08/11 09:15:21;0.00;0.00;0.62;0.00;0.00;0.62;2.53;2.33;;;29.90;25.30;;;;;;2218100;62;20372;-64
2022/08/11 09:18:09;0.00;0.00;0.62;0.00;0.00;0.62;2.67;2.20;;;29.90;25.30;;;;;;2218316;62;20438;-66
2022/08/11 09:20:55;0.00;0.00;0.62;0.00;0.00;0.62;3.10;2.73;;;29.90;25.30;;;;;;2218373;62;20368;-64
2022/08/11 09:27:06;0.00;0.00;0.62;0.00;0.00;0.62;2.83;1.93;;;29.90;25.30;;;;;;2205376;63;20397;-64
2022/08/11 09:29:52;0.00;0.00;0.62;0.00;0.00;0.62;4.27;2.47;;;29.90;25.30;;;;;;2217929;62;20425;-66
2022/08/11 09:32:40;0.00;0.00;0.62;0.00;0.00;0.62;3.70;2.40;;;29.90;25.30;;;;;;2218188;62;20780;-63
2022/08/11 09:35:28;0.00;0.00;0.62;0.00;0.00;0.62;2.83;2.50;;;29.90;25.30;;;;;;2218301;62;20376;-64
2022/08/11 09:41:20;0.00;0.00;0.62;0.00;0.00;0.62;5.60;2.23;;;30.00;25.30;;;;;;2217967;62;20364;-63
2022/08/11 09:47:13;0.00;0.00;0.62;0.00;0.00;0.62;2.13;1.93;;;30.00;25.20;;;;;;2218254;62;20748;-64
2022/08/11 09:50:00;0.00;0.00;0.62;0.00;0.00;0.62;3.87;2.40;;;30.00;25.20;;;;;;2218088;62;20464;-64
2022/08/11 09:52:49;0.00;0.00;0.62;0.00;0.00;0.62;2.30;1.97;;;30.00;25.20;;;;;;2217809;62;20439;-66
2022/08/11 09:55:34;0.00;0.00;0.62;0.00;0.00;0.62;3.90;2.23;;;30.00;25.20;;;;;;2217922;62;20376;-65
2022/08/11 09:58:21;0.00;0.00;0.62;0.00;0.00;0.62;4.00;2.50;;;30.00;25.20;;;;;;2217746;62;20392;-68
2022/08/11 10:01:07;0.00;0.00;0.62;0.00;0.00;0.62;4.90;2.17;;;30.00;25.20;;;;;;2218260;62;20363;-66
2022/08/11 10:04:14;0.00;0.00;0.62;0.00;0.00;0.62;2.20;2.00;;;30.00;25.20;;;;;;2218240;62;20413;-64
2022/08/11 10:07:03;0.00;0.00;0.62;0.00;0.00;0.62;2.17;1.90;;;30.10;25.40;;;;;;2217689;62;20781;-64
2022/08/11 10:09:55;0.00;0.00;0.62;0.00;0.00;0.62;3.13;2.20;;;30.10;25.40;;;;;;2215310;62;20368;-63
2022/08/11 10:12:47;0.00;0.00;0.62;0.00;0.00;0.62;3.27;2.23;;;30.10;25.40;;;;;;2218054;62;20399;-69
2022/08/11 10:15:36;0.00;0.00;0.62;0.00;0.00;0.62;2.80;2.20;;;30.10;25.40;;;;;;2218008;62;20372;-67
2022/08/11 10:18:48;0.00;0.00;0.62;0.00;0.00;0.62;3.53;2.17;;;30.10;25.40;;;;;;2217834;62;20391;-68
2022/08/11 10:21:37;0.00;0.00;0.62;0.00;0.00;0.62;2.70;2.20;;;30.20;25.50;;;;;;2217829;62;20698;-64
2022/08/11 10:28:24;0.00;0.00;0.62;0.00;0.00;0.62;2.83;2.10;;;30.20;25.60;;;;;;2218459;62;20759;-66
2022/08/11 10:34:15;0.00;0.00;0.62;0.00;0.00;0.62;3.40;2.30;;;30.20;25.60;;;;;;2217845;62;20800;-68
2022/08/11 10:37:03;0.00;0.00;0.62;0.00;0.00;0.62;2.67;2.30;;;30.20;25.60;;;;;;2217676;62;20377;-66
2022/08/11 10:39:49;0.00;0.00;0.62;0.00;0.00;0.62;2.67;2.30;;;30.30;25.70;;;;;;2217465;62;20352;-66
2022/08/11 10:48:47;0.00;0.00;0.62;0.00;0.00;0.62;8.27;6.80;;;30.40;25.90;;;;;;2217691;62;20476;-69
2022/08/11 11:00:49;0.00;0.00;0.62;0.00;0.00;0.62;7.40;5.10;;;30.50;26.10;;;;;;2218021;62;20421;-68
2022/08/11 11:03:36;0.00;0.00;0.62;0.00;0.00;0.62;6.27;5.00;;;30.50;26.10;;;;;;2217571;62;20408;-68
2022/08/11 11:06:26;0.00;0.00;0.62;0.00;0.00;0.62;6.00;4.93;;;30.50;26.10;;;;;;2217507;62;20415;-70
2022/08/11 11:09:17;0.00;0.00;0.62;0.00;0.00;0.62;4.87;4.23;;;30.50;26.00;;;;;;2218146;62;20395;-70
2022/08/11 11:18:24;0.00;0.00;0.62;0.00;0.00;0.62;3.63;3.30;;;30.60;26.00;;;;;;2217590;62;20415;-68
2022/08/11 11:21:14;0.00;0.00;0.62;0.00;0.00;0.62;3.10;2.80;;;30.70;26.10;;;;;;2217669;62;20596;-69
2022/08/11 11:24:36;0.00;0.00;0.62;0.00;0.00;0.62;3.77;3.37;;;30.70;26.10;;;;;;2218053;62;20435;-68
2022/08/11 11:27:30;0.00;0.00;0.62;0.00;0.00;0.62;4.63;3.40;;;30.70;26.10;;;;;;2217675;62;20638;-67
2022/08/11 11:30:17;0.00;0.00;0.62;0.00;0.00;0.62;3.47;3.17;;;30.70;26.00;;;;;;2218088;62;20376;-70
2022/08/11 11:33:12;0.00;0.00;0.62;0.00;0.00;0.62;3.43;3.07;;;30.80;26.00;;;;;;2217732;62;20626;-69
2022/08/11 11:36:12;0.00;0.00;0.62;0.00;0.00;0.62;3.70;2.40;;;30.80;26.00;;;;;;2218035;62;20402;-70
2022/08/11 11:38:57;0.00;0.00;0.62;0.00;0.00;0.62;3.10;2.63;;;30.80;26.00;;;;;;2218579;62;20610;-69
2022/08/11 11:41:43;0.00;0.00;0.62;0.00;0.00;0.62;3.47;2.70;;;30.90;25.90;;;;;;2218761;62;20478;-69
2022/08/11 11:44:28;0.00;0.00;0.62;0.00;0.00;0.62;2.80;2.50;;;30.90;25.70;;;;;;2218671;62;20371;-69
2022/08/11 11:47:18;0.00;0.00;0.62;0.00;0.00;0.62;7.10;2.80;;;30.90;25.70;;;;;;2218381;62;20363;-67
2022/08/11 11:50:33;0.00;0.00;0.62;0.00;0.00;0.62;3.40;2.50;;;30.90;25.50;;;;;;2322345;41;20365;-67
2022/08/11 11:53:19;0.00;0.00;0.62;0.00;0.00;0.62;2.73;2.30;;;31.00;25.80;;;;;;2218252;62;20395;-65
2022/08/11 11:56:05;0.00;0.00;0.62;0.00;0.00;0.62;3.53;2.30;;;31.00;25.70;;;;;;2218717;62;20384;-69
2022/08/11 12:01:57;0.00;0.00;0.62;0.00;0.00;0.62;3.47;2.23;;;31.10;25.50;;;;;;2218373;62;20600;-72
2022/08/11 12:04:47;0.00;0.00;0.62;0.00;0.00;0.62;2.63;2.27;;;31.10;25.50;;;;;;2218585;62;20741;-71
2022/08/11 12:10:42;0.00;0.00;0.62;0.00;0.00;0.62;3.07;2.43;;;31.10;25.50;;;;;;2218506;62;20388;-68
2022/08/11 12:13:39;0.00;0.00;0.62;0.00;0.00;0.62;2.70;2.50;;;31.10;25.50;;;;;;2217960;62;20385;-71
2022/08/11 12:16:24;0.00;0.00;0.62;0.00;0.00;0.62;2.97;2.17;;;31.20;25.50;;;;;;2218603;62;20371;-70
2022/08/11 12:19:14;0.00;0.00;0.62;0.00;0.00;0.62;2.77;2.50;;;31.20;25.50;;;;;;2376243;54;20429;-69
2022/08/11 12:28:11;0.00;0.00;0.62;0.00;0.00;0.62;2.20;2.00;;;31.30;25.50;;;;;;2217669;62;20529;-67
2022/08/11 12:30:56;0.00;0.00;0.62;0.00;0.00;0.62;5.20;2.37;;;31.30;25.20;;;;;;2218345;62;20817;-72
2022/08/11 12:33:42;0.00;0.00;0.62;0.00;0.00;0.62;2.87;2.20;;;31.40;24.60;;;;;;2218376;62;20410;-68
2022/08/11 12:36:32;0.00;0.00;0.62;0.00;0.00;0.62;3.13;2.23;;;31.40;24.00;;;;;;2217724;62;20398;-69
2022/08/11 12:45:26;0.00;0.00;0.62;0.00;0.00;0.62;2.80;2.30;;;31.40;24.40;;;;;;2218596;62;20395;-70
2022/08/11 12:45:41;0.00;0.00;0.62;0.00;0.00;0.62;4.73;2.40;;;31.50;23.90;;;;;;2220678;62;20785;-65
2022/08/11 12:51:58;0.00;0.00;0.62;0.00;0.00;0.62;3.00;2.40;;;31.50;23.00;;;;;;2217035;62;20422;-68
2022/08/11 12:54:56;0.00;0.00;0.62;0.00;0.00;0.62;4.73;2.20;;;31.50;22.90;;;;;;2215414;62;20494;-66
2022/08/11 13:07:02;0.00;0.00;0.62;0.00;0.00;0.62;2.97;2.10;;;31.60;21.80;;;;;;2217788;62;20632;-67
2022/08/11 13:09:49;0.00;0.00;0.62;0.00;0.00;0.62;5.90;2.23;;;31.60;21.60;;;;;;2218513;62;20383;-69
2022/08/11 13:12:47;0.00;0.00;0.62;0.00;0.00;0.62;3.00;2.30;;;31.60;22.30;;;;;;2217426;62;20415;-66
2022/08/11 13:15:35;0.00;0.00;0.62;0.00;0.00;0.62;3.47;2.30;;;31.60;21.90;;;;;;2218444;62;20410;-67
2022/08/11 13:18:22;0.00;0.00;0.62;0.00;0.00;0.62;3.60;2.20;;;31.60;22.00;;;;;;2218024;62;20413;-70
2022/08/11 13:21:10;0.00;0.00;0.62;0.00;0.00;0.62;3.40;2.13;;;31.70;22.10;;;;;;2214425;62;20391;-69
2022/08/11 13:23:56;0.00;0.00;0.62;0.00;0.00;0.62;3.20;2.50;;;31.70;21.80;;;;;;2218480;62;20380;-70
2022/08/11 13:26:42;0.00;0.00;0.62;0.00;0.00;0.62;2.63;2.40;;;31.70;21.80;;;;;;2218356;62;20731;-68
2022/08/11 13:29:28;0.00;0.00;0.62;0.00;0.00;0.62;3.13;2.50;;;31.70;21.80;;;;;;2218674;62;20376;-67
2022/08/11 13:32:18;0.00;0.00;0.62;0.00;0.00;0.62;2.60;2.20;;;31.70;21.30;;;;;;2218149;62;20775;-66
2022/08/11 13:35:07;0.00;0.00;0.62;0.00;0.00;0.62;4.23;2.33;;;31.70;21.40;;;;;;2217611;62;20371;-70
2022/08/11 13:37:55;0.00;0.00;0.62;0.00;0.00;0.62;5.30;2.17;;;31.70;21.40;;;;;;2218197;62;20612;-66
2022/08/11 13:40:45;0.00;0.00;0.62;0.00;0.00;0.62;4.23;2.50;;;31.70;21.00;;;;;;2218250;62;20399;-68
2022/08/11 13:43:30;0.00;0.00;0.62;0.00;0.00;0.62;3.00;2.60;;;31.80;21.00;;;;;;2217345;62;20395;-65
2022/08/11 13:46:18;0.00;0.00;0.62;0.00;0.00;0.62;5.10;2.93;;;31.80;21.30;;;;;;2217883;62;20413;-67
2022/08/11 13:49:07;0.00;0.00;0.62;0.00;0.00;0.62;4.07;2.23;;;31.80;21.20;;;;;;2218061;62;20364;-69
2022/08/11 13:51:56;0.00;0.00;0.62;0.00;0.00;0.62;7.80;3.03;;;31.80;21.30;;;;;;2218215;62;20407;-67
2022/08/11 13:54:44;0.00;0.00;0.62;0.00;0.00;0.62;5.77;2.63;;;31.80;21.60;;;;;;2218308;62;20425;-66
2022/08/11 13:57:35;0.00;0.00;0.62;0.00;0.00;0.62;2.93;2.73;;;31.90;21.30;;;;;;2217958;62;20639;-68
2022/08/11 14:00:20;0.00;0.00;0.62;0.00;0.00;0.62;3.53;2.60;;;31.90;21.10;;;;;;2217987;62;20368;-68
2022/08/11 14:03:10;0.00;0.00;0.62;0.00;0.00;0.62;2.37;2.13;;;31.90;21.20;;;;;;2217928;62;20384;-67
2022/08/11 14:06:00;0.00;0.00;0.62;0.00;0.00;0.62;4.00;2.77;;;31.90;20.90;;;;;;2217687;62;20387;-68
2022/08/11 14:08:48;0.00;0.00;0.62;0.00;0.00;0.62;2.70;2.27;;;32.00;20.80;;;;;;2218167;62;20373;-65
2022/08/11 14:14:40;0.00;0.00;0.62;0.00;0.00;0.62;2.43;2.23;;;32.00;20.90;;;;;;2217656;62;20380;-66
2022/08/11 14:17:27;0.00;0.00;0.62;0.00;0.00;0.62;2.73;2.23;;;32.00;20.90;;;;;;2505872;47;20426;-62
2022/08/11 14:20:15;0.00;0.00;0.62;0.00;0.00;0.62;2.37;2.03;;;32.00;21.40;;;;;;2213988;62;20377;-62
2022/08/11 14:23:01;0.00;0.00;0.62;0.00;0.00;0.62;2.87;2.20;;;32.10;21.60;;;;;;2214298;62;20393;-62
2022/08/11 14:28:55;0.00;0.00;0.62;0.00;0.00;0.62;3.37;2.53;;;32.10;21.60;;;;;;2214270;62;20376;-62
2022/08/11 14:31:45;0.00;0.00;0.62;0.00;0.00;0.62;2.53;2.20;;;32.10;21.20;;;;;;2214220;62;20837;-63
2022/08/11 14:34:33;0.00;0.00;0.62;0.00;0.00;0.62;2.53;1.87;;;32.20;21.00;;;;;;2213963;62;20380;-62
2022/08/11 14:37:20;0.00;0.00;0.62;0.00;0.00;0.62;2.60;2.13;;;32.20;21.30;;;;;;2214192;62;20377;-62
2022/08/11 14:47:03;0.00;0.00;0.62;0.00;0.00;0.62;3.70;2.40;;;32.20;21.50;;;;;;2213851;62;20410;-62
2022/08/11 14:49:23;0.00;0.00;0.62;0.00;0.00;0.62;3.47;2.90;;;32.20;20.10;;;;;;2213900;62;20391;-62
2022/08/11 14:52:14;0.00;0.00;0.62;0.00;0.00;0.62;3.70;2.43;;;32.20;19.90;;;;;;2214154;62;20408;-63
2022/08/11 14:58:07;0.00;0.00;0.62;0.00;0.00;0.62;3.00;2.70;;;32.20;19.70;;;;;;2214161;62;20419;-61
2022/08/11 15:00:57;0.00;0.00;0.62;0.00;0.00;0.62;3.63;2.37;;;32.20;19.80;;;;;;2214145;62;20396;-63
2022/08/11 15:03:44;0.00;0.00;0.62;0.00;0.00;0.62;5.13;2.40;;;32.20;20.10;;;;;;2213006;62;20384;-61
2022/08/11 15:06:29;0.00;0.00;0.62;0.00;0.00;0.62;3.10;2.50;;;32.20;20.20;;;;;;2214275;62;20447;-63
2022/08/11 15:09:15;0.00;0.00;0.62;0.00;0.00;0.62;7.93;2.80;;;32.20;20.20;;;;;;2213817;62;20356;-64
2022/08/11 15:12:15;0.00;0.00;0.62;0.00;0.00;0.62;2.77;2.40;;;32.20;19.90;;;;;;2214089;62;20401;-62
2022/08/11 15:18:11;0.00;0.00;0.62;0.00;0.00;0.62;2.80;2.43;;;32.30;20.20;;;;;;2214062;62;20675;-63
2022/08/11 15:24:20;0.00;0.00;0.62;0.00;0.00;0.62;2.13;1.93;;;32.30;20.30;;;;;;2202045;63;20428;-62
2022/08/11 15:45:46;0.00;0.00;0.62;0.00;0.00;0.62;4.20;3.17;;;32.40;19.80;;;;;;2214235;62;20372;-61
2022/08/11 15:46:16;0.00;0.00;0.62;0.00;0.00;0.62;4.40;2.70;;;32.40;19.70;;;;;;2214184;62;20603;-61
2022/08/11 15:49:07;0.00;0.00;0.62;0.00;0.00;0.62;2.13;1.93;;;32.40;19.70;;;;;;2214449;62;20403;-62
2022/08/11 15:52:00;0.00;0.00;0.62;0.00;0.00;0.62;2.70;2.33;;;32.40;19.60;;;;;;2214609;62;20550;-61